Time;durP1;ratioP1;P1;durP2;ratioP2;P2;SDS_P1;SDS_P2;PMS_P1;PMS_P2;Temp;Humidity;BMP_temperature;BMP_pressure;BME280_temperature;BME280_humidity;BME280_pressure;Samples;Min_cycle;Max_cycle;Signal;HPM_P1;HPM_P2
2022/10/31 00:02:05;;;;;;;8.95;5.25;;;10.60;99.90;;;;;;4982998;28;20049;-82
2022/10/31 00:04:31;;;;;;;10.00;5.63;;;10.60;99.90;;;;;;5006362;28;20034;-82
2022/10/31 00:06:58;;;;;;;11.20;6.22;;;10.50;99.90;;;;;;4971611;28;20038;-82
2022/10/31 00:09:23;;;;;;;9.82;6.00;;;10.50;99.90;;;;;;4972185;28;20085;-82
2022/10/31 00:11:49;;;;;;;12.32;5.75;;;10.40;99.90;;;;;;4971776;28;20529;-82
2022/10/31 00:14:15;;;;;;;9.77;6.13;;;10.50;99.90;;;;;;4978972;28;20082;-82
2022/10/31 00:16:41;;;;;;;11.32;6.38;;;10.40;99.90;;;;;;4983836;28;20072;-83
2022/10/31 00:19:07;;;;;;;8.77;6.00;;;10.40;99.90;;;;;;4956375;28;20117;-81
2022/10/31 00:21:34;;;;;;;13.13;6.40;;;10.40;99.90;;;;;;5007093;28;20045;-82
2022/10/31 00:24:00;;;;;;;10.63;4.95;;;10.40;99.90;;;;;;5006942;28;20113;-82
2022/10/31 00:26:28;;;;;;;7.47;5.10;;;10.40;99.90;;;;;;4996254;28;20033;-82
2022/10/31 00:28:53;;;;;;;6.82;4.95;;;10.40;99.90;;;;;;4988215;28;20026;-82
2022/10/31 00:31:20;;;;;;;6.35;4.70;;;10.30;99.90;;;;;;5001483;28;20379;-82
2022/10/31 00:33:46;;;;;;;5.65;4.65;;;10.30;99.90;;;;;;4979839;28;20045;-82
2022/10/31 00:36:17;;;;;;;5.78;4.57;;;10.30;99.90;;;;;;4991808;28;20129;-82
2022/10/31 00:38:43;;;;;;;8.50;4.65;;;10.30;99.90;;;;;;4992023;28;20134;-82
2022/10/31 00:41:10;;;;;;;9.52;4.72;;;10.30;99.90;;;;;;4999484;28;20061;-82
2022/10/31 00:43:39;;;;;;;5.80;4.45;;;10.20;99.90;;;;;;4973300;28;20042;-82
2022/10/31 00:46:05;;;;;;;6.63;4.53;;;10.20;99.90;;;;;;4997192;28;20399;-82
2022/10/31 00:48:31;;;;;;;4.45;4.05;;;10.20;99.90;;;;;;4991718;28;20038;-82
2022/10/31 00:50:57;;;;;;;6.03;4.10;;;10.20;99.90;;;;;;4981204;28;20022;-82
2022/10/31 00:53:23;;;;;;;5.35;4.05;;;10.20;99.90;;;;;;5010204;28;20709;-82
2022/10/31 00:55:49;;;;;;;3.63;3.33;;;10.20;99.90;;;;;;4996242;28;20117;-82
2022/10/31 00:58:15;;;;;;;6.65;4.15;;;10.20;99.90;;;;;;5027018;28;20117;-82
2022/10/31 01:00:40;;;;;;;3.40;3.10;;;10.10;99.90;;;;;;4975465;28;20037;-82
2022/10/31 01:03:06;;;;;;;4.10;3.40;;;10.10;99.90;;;;;;4956965;28;20088;-82
2022/10/31 01:05:36;;;;;;;4.45;4.03;;;10.00;99.90;;;;;;4974210;28;20411;-82
2022/10/31 01:08:02;;;;;;;5.75;3.28;;;9.90;99.90;;;;;;4991281;28;20041;-82
2022/10/31 01:10:28;;;;;;;5.72;3.97;;;9.90;99.90;;;;;;4992973;28;20069;-81
2022/10/31 01:12:53;;;;;;;5.47;4.15;;;9.90;99.90;;;;;;4989383;28;20038;-82
2022/10/31 01:15:22;;;;;;;5.90;4.57;;;9.90;99.90;;;;;;4967896;28;20129;-82
2022/10/31 01:17:48;;;;;;;7.35;3.92;;;9.90;99.90;;;;;;5010630;28;20064;-82
2022/10/31 01:20:16;;;;;;;4.78;3.95;;;9.90;99.90;;;;;;4974478;28;20039;-82
2022/10/31 01:22:42;;;;;;;6.60;4.70;;;9.90;99.90;;;;;;4993932;28;20108;-82
2022/10/31 01:25:09;;;;;;;5.38;4.40;;;9.90;99.90;;;;;;5026511;28;20030;-81
2022/10/31 01:27:34;;;;;;;6.28;4.78;;;9.90;99.90;;;;;;5025410;28;20033;-82
2022/10/31 01:30:00;;;;;;;5.43;4.22;;;9.90;99.90;;;;;;4972798;28;20039;-82
2022/10/31 01:32:28;;;;;;;8.45;4.60;;;9.90;99.90;;;;;;5008895;28;20180;-83
2022/10/31 01:34:55;;;;;;;6.78;4.53;;;9.80;99.90;;;;;;4978100;28;20053;-82
2022/10/31 01:37:20;;;;;;;8.40;4.38;;;9.80;99.90;;;;;;4992519;28;20523;-82
2022/10/31 01:39:48;;;;;;;7.93;4.30;;;9.80;99.90;;;;;;4990356;28;20050;-83
2022/10/31 01:42:22;;;;;;;4.40;4.00;;;9.80;99.90;;;;;;4993913;28;20027;-82
2022/10/31 01:44:55;;;;;;;7.70;4.25;;;9.70;99.90;;;;;;4991676;28;20035;-82
2022/10/31 01:47:39;;;;;;;10.05;4.82;;;9.80;99.90;;;;;;5008034;28;20041;-82
2022/10/31 01:50:12;;;;;;;6.13;4.18;;;9.80;99.90;;;;;;5009834;28;20030;-83
2022/10/31 01:52:42;;;;;;;5.43;4.00;;;9.70;99.90;;;;;;4970239;28;20165;-82
2022/10/31 01:55:23;;;;;;;8.38;4.72;;;9.70;99.90;;;;;;4989979;28;20080;-82
2022/10/31 01:57:51;;;;;;;4.90;4.03;;;9.70;99.90;;;;;;4972399;28;20549;-82
2022/10/31 02:00:19;;;;;;;7.07;5.05;;;9.70;99.90;;;;;;4989392;28;20149;-82
2022/10/31 02:02:46;;;;;;;10.60;5.47;;;9.60;99.90;;;;;;5003750;28;20030;-82
2022/10/31 02:05:24;;;;;;;8.85;5.07;;;9.60;99.90;;;;;;4989780;28;20545;-82
2022/10/31 02:08:12;;;;;;;7.13;4.45;;;9.60;99.90;;;;;;5006321;28;20027;-83
2022/10/31 02:10:39;;;;;;;6.60;5.03;;;9.60;99.90;;;;;;4976291;28;20025;-82
2022/10/31 02:13:08;;;;;;;8.50;5.10;;;9.60;99.90;;;;;;4973387;28;20030;-82
2022/10/31 02:15:44;;;;;;;7.50;4.80;;;9.60;99.90;;;;;;4993521;28;20041;-82
2022/10/31 02:18:10;;;;;;;6.78;4.78;;;9.60;99.90;;;;;;4963114;28;20031;-83
2022/10/31 02:20:57;;;;;;;8.52;4.60;;;9.60;99.90;;;;;;4973583;28;20521;-83
2022/10/31 02:23:47;;;;;;;8.85;3.95;;;9.60;99.90;;;;;;4986597;28;20027;-81
2022/10/31 02:26:33;;;;;;;9.15;3.95;;;9.50;99.90;;;;;;4978398;28;20441;-83
2022/10/31 02:29:33;;;;;;;5.63;3.80;;;9.50;99.90;;;;;;5007662;28;20483;-82
2022/10/31 02:32:19;;;;;;;6.20;3.80;;;9.40;99.90;;;;;;4992793;28;20434;-82
2022/10/31 02:34:54;;;;;;;7.45;4.07;;;9.40;99.90;;;;;;4989098;28;20536;-82
2022/10/31 02:37:29;;;;;;;;;;;9.40;99.90;;;;;;4990041;28;20030;-83
2022/10/31 02:40:05;;;;;;;4.45;4.00;;;9.40;99.90;;;;;;4998455;28;19910;-83
2022/10/31 02:43:17;;;;;;;5.53;3.90;;;9.30;99.90;;;;;;4988588;28;20037;-82
2022/10/31 02:46:21;;;;;;;11.50;3.85;;;9.30;99.90;;;;;;4994645;28;20022;-82
2022/10/31 02:48:51;;;;;;;6.13;3.58;;;9.30;99.90;;;;;;4986405;28;20039;-82
2022/10/31 02:51:18;;;;;;;5.88;3.78;;;9.20;99.90;;;;;;4985752;28;20327;-82
2022/10/31 02:53:43;;;;;;;5.22;3.60;;;9.20;99.90;;;;;;4987517;28;20480;-82
2022/10/31 02:56:12;;;;;;;5.72;4.05;;;9.20;99.90;;;;;;4948497;28;20159;-82
2022/10/31 02:58:47;;;;;;;4.55;3.80;;;9.20;99.90;;;;;;5016872;28;20042;-82
2022/10/31 03:01:45;;;;;;;6.15;4.55;;;9.20;99.90;;;;;;4960493;28;20038;-82
2022/10/31 03:04:19;;;;;;;6.15;4.05;;;9.20;99.90;;;;;;4971999;28;20181;-82
2022/10/31 03:06:49;;;;;;;7.35;4.75;;;9.20;99.90;;;;;;4987443;28;20595;-83
2022/10/31 03:09:26;;;;;;;6.93;4.40;;;9.20;99.90;;;;;;4985573;28;20038;-83
2022/10/31 03:11:58;;;;;;;8.02;4.85;;;9.10;99.90;;;;;;4997011;28;20533;-83
2022/10/31 03:14:34;;;;;;;7.20;4.45;;;9.10;99.90;;;;;;4988703;28;20034;-82
2022/10/31 03:17:05;;;;;;;6.10;4.85;;;9.10;99.90;;;;;;5003827;28;20061;-82
2022/10/31 03:19:40;;;;;;;8.35;4.57;;;9.10;99.90;;;;;;4974379;28;20045;-82
2022/10/31 03:22:23;;;;;;;6.57;4.90;;;9.20;99.90;;;;;;4972270;28;20157;-84
2022/10/31 03:24:51;;;;;;;5.05;4.55;;;9.10;99.90;;;;;;4988379;28;20468;-82
2022/10/31 03:27:23;;;;;;;5.95;4.45;;;9.10;99.90;;;;;;4989395;28;20031;-83
2022/10/31 03:29:52;;;;;;;6.72;4.75;;;9.10;99.90;;;;;;4988347;28;20684;-83
2022/10/31 03:32:38;;;;;;;5.20;4.03;;;9.10;99.90;;;;;;4985697;28;20117;-83
2022/10/31 03:35:07;;;;;;;4.97;4.47;;;9.10;99.90;;;;;;4985244;28;20046;-82
2022/10/31 03:37:34;;;;;;;4.60;4.15;;;9.10;99.90;;;;;;4972357;28;20038;-82
2022/10/31 03:40:04;;;;;;;5.72;4.50;;;9.10;99.90;;;;;;4972807;28;20036;-82
2022/10/31 03:42:34;;;;;;;4.60;4.18;;;9.10;99.90;;;;;;4994239;28;20034;-82
2022/10/31 03:45:04;;;;;;;6.72;3.92;;;9.10;99.90;;;;;;4988125;28;20649;-82
2022/10/31 03:47:30;;;;;;;6.85;4.07;;;9.00;99.90;;;;;;4988636;28;20034;-83
2022/10/31 03:49:57;;;;;;;4.82;3.83;;;9.10;99.90;;;;;;4986337;28;20030;-82
2022/10/31 03:52:28;;;;;;;8.05;3.40;;;9.00;99.90;;;;;;4987468;28;20499;-83
2022/10/31 03:55:10;;;;;;;4.95;3.30;;;9.00;99.90;;;;;;4971526;28;20026;-82
2022/10/31 03:57:48;;;;;;;3.58;3.28;;;8.90;99.90;;;;;;4997331;28;20030;-83
2022/10/31 04:00:15;;;;;;;7.00;3.60;;;8.90;99.90;;;;;;5000188;28;20022;-83
2022/10/31 04:03:10;;;;;;;5.30;3.17;;;8.80;99.90;;;;;;5007850;28;20037;-83
2022/10/31 04:05:38;;;;;;;3.50;3.00;;;8.80;99.90;;;;;;5000253;28;20034;-83
2022/10/31 04:08:09;;;;;;;4.50;3.45;;;8.80;99.90;;;;;;5024245;28;20064;-82
2022/10/31 04:10:38;;;;;;;3.45;3.13;;;8.80;99.90;;;;;;5003201;28;20018;-83
2022/10/31 04:13:19;;;;;;;4.63;3.45;;;8.70;99.90;;;;;;5007138;28;20036;-84
2022/10/31 04:15:50;;;;;;;5.88;3.70;;;8.70;99.90;;;;;;5018329;28;20037;-84
2022/10/31 04:18:17;;;;;;;4.32;3.50;;;8.70;99.90;;;;;;5004093;28;20034;-83
2022/10/31 04:20:42;;;;;;;4.93;3.13;;;8.70;99.90;;;;;;4991785;28;20370;-82
2022/10/31 04:23:24;;;;;;;3.97;3.00;;;8.70;99.90;;;;;;4985344;28;20407;-82
2022/10/31 04:25:50;;;;;;;3.22;2.92;;;8.70;99.90;;;;;;4987620;28;20018;-83
2022/10/31 04:28:18;;;;;;;3.38;3.08;;;8.60;99.90;;;;;;4987991;28;20460;-83
2022/10/31 04:30:44;;;;;;;3.55;2.95;;;8.60;99.90;;;;;;4987708;28;20038;-83
2022/10/31 04:33:10;;;;;;;5.97;3.05;;;8.60;99.90;;;;;;4987140;28;20047;-83
2022/10/31 04:35:36;;;;;;;3.97;2.67;;;8.50;99.90;;;;;;4974726;28;20045;-83
2022/10/31 04:38:02;;;;;;;4.30;2.72;;;8.50;99.90;;;;;;4975326;28;20038;-83
2022/10/31 04:40:29;;;;;;;4.28;3.65;;;8.50;99.90;;;;;;4972087;28;20042;-84
2022/10/31 04:42:57;;;;;;;4.80;3.92;;;8.50;99.90;;;;;;4987762;28;20051;-83
2022/10/31 04:45:23;;;;;;;4.47;3.63;;;8.40;99.90;;;;;;4972993;28;20089;-83
2022/10/31 04:47:51;;;;;;;4.93;4.35;;;8.40;99.90;;;;;;4958385;28;20484;-83
2022/10/31 04:50:17;;;;;;;6.97;4.28;;;8.40;99.90;;;;;;4954148;28;20023;-83
2022/10/31 04:52:46;;;;;;;6.85;4.78;;;8.40;99.90;;;;;;5006087;28;20030;-83
2022/10/31 04:55:15;;;;;;;8.13;4.68;;;8.40;99.90;;;;;;4985726;28;20027;-83
2022/10/31 04:58:13;;;;;;;6.05;4.47;;;8.40;99.90;;;;;;5007268;28;20029;-83
2022/10/31 05:00:39;;;;;;;6.38;4.30;;;8.40;99.90;;;;;;4974472;28;20401;-83
2022/10/31 05:03:05;;;;;;;4.97;3.97;;;8.40;99.90;;;;;;4958318;28;20049;-84
2022/10/31 05:05:32;;;;;;;5.45;4.03;;;8.40;99.90;;;;;;4971758;28;20023;-83
2022/10/31 05:08:00;;;;;;;4.68;4.22;;;8.40;99.90;;;;;;4975682;28;20034;-83
2022/10/31 05:10:30;;;;;;;4.95;4.30;;;8.40;99.90;;;;;;4973608;28;20092;-82
2022/10/31 05:12:59;;;;;;;6.07;4.03;;;8.30;99.90;;;;;;4974982;28;20038;-83
2022/10/31 05:15:44;;;;;;;4.85;4.00;;;8.30;99.90;;;;;;4993666;28;20117;-83
2022/10/31 05:18:33;;;;;;;5.00;3.72;;;8.30;99.90;;;;;;4979105;28;20429;-83
2022/10/31 05:21:18;;;;;;;7.85;4.35;;;8.40;99.90;;;;;;5004203;28;20497;-84
2022/10/31 05:23:48;;;;;;;6.45;3.80;;;8.30;99.90;;;;;;4978982;28;20034;-83
2022/10/31 05:26:16;;;;;;;4.53;3.42;;;8.30;99.90;;;;;;4951730;28;20026;-82
2022/10/31 05:28:42;;;;;;;5.30;3.58;;;8.30;99.90;;;;;;4959253;28;20035;-83
2022/10/31 05:31:07;;;;;;;11.30;4.20;;;8.30;99.90;;;;;;4982634;28;20125;-83
2022/10/31 05:33:34;;;;;;;5.80;4.43;;;8.30;99.90;;;;;;4975928;28;20062;-82
2022/10/31 05:36:18;;;;;;;5.88;4.07;;;8.20;99.90;;;;;;4984740;28;20108;-83
2022/10/31 05:39:04;;;;;;;5.32;3.80;;;8.20;99.90;;;;;;4975126;28;20042;-86
2022/10/31 05:41:34;;;;;;;5.85;4.25;;;8.20;99.90;;;;;;4963238;28;20030;-83
2022/10/31 05:44:21;;;;;;;4.95;4.40;;;8.20;99.90;;;;;;4956075;28;20085;-83
2022/10/31 05:47:01;;;;;;;4.10;3.78;;;8.10;99.90;;;;;;4991458;28;20190;-83
2022/10/31 05:49:30;;;;;;;5.13;3.88;;;8.10;99.90;;;;;;4991937;28;20042;-83
2022/10/31 05:52:15;;;;;;;4.32;3.92;;;8.10;99.90;;;;;;4999874;28;20029;-83
2022/10/31 05:54:50;;;;;;;4.30;3.50;;;8.10;99.90;;;;;;5005780;28;20046;-83
2022/10/31 05:57:16;;;;;;;10.88;3.22;;;8.10;99.90;;;;;;4993425;28;20557;-83
2022/10/31 05:59:42;;;;;;;9.35;2.75;;;8.10;99.90;;;;;;4944194;28;20035;-83
2022/10/31 06:02:07;;;;;;;13.18;3.40;;;8.00;99.90;;;;;;4979751;28;20027;-83
2022/10/31 06:04:52;;;;;;;3.35;2.50;;;8.00;99.90;;;;;;4990479;28;20666;-82
2022/10/31 06:07:18;;;;;;;3.03;2.72;;;8.00;99.90;;;;;;5004231;28;20026;-83
2022/10/31 06:09:44;;;;;;;3.17;2.88;;;8.00;99.90;;;;;;4974620;28;20641;-83
2022/10/31 06:12:10;;;;;;;3.45;2.40;;;8.00;99.90;;;;;;4973854;28;20236;-83
2022/10/31 06:15:11;;;;;;;2.72;2.53;;;8.00;99.90;;;;;;4965141;28;20039;-84
2022/10/31 06:17:37;;;;;;;3.33;2.95;;;8.00;99.90;;;;;;4966648;28;20034;-85
2022/10/31 06:20:23;;;;;;;3.10;2.70;;;8.00;99.90;;;;;;4989843;28;20027;-83
2022/10/31 06:23:02;;;;;;;3.83;2.72;;;8.00;99.90;;;;;;4989619;28;20130;-83
2022/10/31 06:25:30;;;;;;;3.78;2.47;;;8.00;99.90;;;;;;4975920;28;20023;-84
2022/10/31 06:27:55;;;;;;;3.03;2.72;;;8.00;99.90;;;;;;5006740;28;20081;-83
2022/10/31 06:30:25;;;;;;;3.08;2.80;;;8.10;99.90;;;;;;4972970;28;20525;-82
2022/10/31 06:32:51;;;;;;;3.30;2.80;;;8.10;99.90;;;;;;4986228;28;20046;-83
2022/10/31 06:35:19;;;;;;;3.85;3.03;;;8.10;99.90;;;;;;4976156;28;20038;-83
2022/10/31 06:37:53;;;;;;;8.40;4.10;;;8.10;99.90;;;;;;4973965;28;20027;-82
2022/10/31 06:40:35;;;;;;;4.95;3.17;;;8.20;99.90;;;;;;4993298;28;20026;-82
2022/10/31 06:43:16;;;;;;;3.17;2.85;;;8.20;99.90;;;;;;4975825;28;20129;-82
2022/10/31 06:45:43;;;;;;;3.10;2.80;;;8.20;99.90;;;;;;4961598;28;20023;-83
2022/10/31 06:48:14;;;;;;;4.50;3.13;;;8.20;99.90;;;;;;4981262;28;20166;-83
2022/10/31 06:51:01;;;;;;;11.00;3.15;;;8.30;99.90;;;;;;4996964;28;20033;-83
2022/10/31 06:53:29;;;;;;;4.65;3.60;;;8.30;99.90;;;;;;5005743;28;20040;-83
2022/10/31 06:55:56;;;;;;;5.55;4.07;;;8.30;99.90;;;;;;4995528;28;20491;-83
2022/10/31 06:58:23;;;;;;;4.68;4.28;;;8.40;99.90;;;;;;4937534;28;20034;-83
2022/10/31 07:00:49;;;;;;;5.90;3.22;;;8.40;99.90;;;;;;4971907;28;20030;-82
2022/10/31 07:03:16;;;;;;;4.55;3.10;;;8.50;99.90;;;;;;5008459;28;20422;-84
2022/10/31 07:05:43;;;;;;;4.88;3.03;;;8.60;99.90;;;;;;4967852;28;20022;-84
2022/10/31 07:08:12;;;;;;;7.10;3.63;;;8.80;99.90;;;;;;4951789;28;20450;-84
2022/10/31 07:10:40;;;;;;;5.85;3.38;;;9.00;99.90;;;;;;4988408;28;20029;-83
2022/10/31 07:13:11;;;;;;;3.80;3.30;;;9.20;99.90;;;;;;4989187;28;20039;-83
2022/10/31 07:15:38;;;;;;;4.50;3.60;;;9.30;99.90;;;;;;5009096;28;20026;-83
2022/10/31 07:18:07;;;;;;;5.47;3.70;;;9.50;99.90;;;;;;4987340;28;20030;-82
2022/10/31 07:20:34;;;;;;;4.32;3.28;;;9.70;99.90;;;;;;4991519;28;20061;-83
2022/10/31 07:23:02;;;;;;;6.40;3.63;;;9.90;99.90;;;;;;4958261;28;20030;-83
2022/10/31 07:25:30;;;;;;;5.47;3.60;;;10.00;99.90;;;;;;4989152;28;20517;-83
2022/10/31 07:28:09;;;;;;;5.00;3.80;;;10.10;99.90;;;;;;4960191;28;20065;-82
2022/10/31 07:30:37;;;;;;;4.57;3.60;;;10.30;99.90;;;;;;4976175;28;20483;-84
2022/10/31 07:33:04;;;;;;;4.28;3.53;;;10.50;99.90;;;;;;4969502;28;20077;-82
2022/10/31 07:35:53;;;;;;;3.45;3.15;;;10.70;99.90;;;;;;4996599;28;20026;-83
2022/10/31 07:38:22;;;;;;;3.78;3.35;;;11.00;99.90;;;;;;4972122;28;20038;-83
2022/10/31 07:40:55;;;;;;;3.47;3.17;;;11.10;99.90;;;;;;4965543;28;20457;-83
2022/10/31 07:43:22;;;;;;;3.80;3.40;;;11.20;99.90;;;;;;4981584;28;20065;-84
2022/10/31 07:46:26;;;;;;;4.13;3.65;;;11.30;99.90;;;;;;4936878;29;20524;-83
2022/10/31 07:48:58;;;;;;;3.75;3.40;;;11.40;99.90;;;;;;4924673;29;20629;-83
2022/10/31 07:51:41;;;;;;;4.20;3.13;;;11.50;99.90;;;;;;4964748;28;20038;-81
2022/10/31 07:54:13;;;;;;;4.43;3.75;;;11.50;99.90;;;;;;4973081;28;20065;-85
2022/10/31 07:56:39;;;;;;;6.20;4.15;;;11.40;99.90;;;;;;4943841;28;20069;-84
2022/10/31 07:59:05;;;;;;;7.50;4.65;;;11.40;99.90;;;;;;4954717;28;20101;-85
2022/10/31 08:01:31;;;;;;;5.10;4.60;;;11.40;99.90;;;;;;4944513;28;20034;-83
2022/10/31 08:04:22;;;;;;;5.20;4.70;;;11.40;99.90;;;;;;4988702;28;20034;-85
2022/10/31 08:07:07;;;;;;;10.02;4.97;;;11.40;99.90;;;;;;4977921;28;20697;-84
2022/10/31 08:09:35;;;;;;;6.88;4.57;;;11.40;99.90;;;;;;4991287;28;20049;-83
2022/10/31 08:12:07;;;;;;;7.60;4.53;;;11.30;99.90;;;;;;4996594;28;20057;-84
2022/10/31 08:14:34;;;;;;;7.15;5.18;;;11.30;99.90;;;;;;4980608;28;20037;-84
2022/10/31 08:17:00;;;;;;;6.07;4.20;;;11.30;99.90;;;;;;4975383;28;20034;-83
2022/10/31 08:19:34;;;;;;;3.45;3.13;;;11.30;99.90;;;;;;4972463;28;20045;-84
2022/10/31 08:22:00;;;;;;;3.60;3.30;;;11.30;99.90;;;;;;4967162;28;20063;-83
2022/10/31 08:24:26;;;;;;;3.80;3.30;;;11.30;99.90;;;;;;4971033;28;20139;-84
2022/10/31 08:26:53;;;;;;;6.22;3.53;;;11.30;99.90;;;;;;4974483;28;20035;-84
2022/10/31 08:29:19;;;;;;;3.60;3.30;;;11.30;99.90;;;;;;4983409;28;20546;-84
2022/10/31 08:31:46;;;;;;;4.05;3.50;;;11.40;99.90;;;;;;4987157;28;20047;-84
2022/10/31 08:34:47;;;;;;;4.03;3.63;;;11.30;99.90;;;;;;4936266;29;20032;-84
2022/10/31 08:37:31;;;;;;;9.23;4.43;;;11.40;99.90;;;;;;4988061;28;20510;-83
2022/10/31 08:39:57;;;;;;;5.25;4.28;;;11.40;99.90;;;;;;4965821;28;20026;-84
2022/10/31 08:42:23;;;;;;;5.22;4.15;;;11.50;99.90;;;;;;4994471;28;20054;-85
2022/10/31 08:44:48;;;;;;;4.68;4.10;;;11.50;99.90;;;;;;4968488;28;20027;-83
2022/10/31 08:47:14;;;;;;;5.63;4.53;;;11.60;99.90;;;;;;4979384;28;20035;-84
2022/10/31 08:49:40;;;;;;;8.05;4.97;;;11.60;99.90;;;;;;4953582;28;20054;-84
2022/10/31 08:52:06;;;;;;;5.57;4.10;;;11.70;99.90;;;;;;5007680;28;20053;-83
2022/10/31 08:54:36;;;;;;;6.95;4.43;;;11.80;99.90;;;;;;4976397;28;20041;-84
2022/10/31 08:57:22;;;;;;;4.65;3.90;;;11.80;99.90;;;;;;4988887;28;20125;-84
2022/10/31 08:59:47;;;;;;;4.85;4.03;;;11.80;99.90;;;;;;4981794;28;20077;-83
2022/10/31 09:02:38;;;;;;;6.75;4.45;;;11.90;99.90;;;;;;4986391;28;20101;-84
2022/10/31 09:05:04;;;;;;;7.93;4.10;;;12.00;99.90;;;;;;4988622;28;20486;-84
2022/10/31 09:07:30;;;;;;;9.48;4.35;;;12.00;99.90;;;;;;4973514;28;20121;-84
2022/10/31 09:09:57;;;;;;;6.18;4.38;;;12.00;99.90;;;;;;4987733;28;20550;-82
2022/10/31 09:12:24;;;;;;;5.35;4.75;;;12.10;99.90;;;;;;4977218;28;20038;-81
2022/10/31 09:15:08;;;;;;;5.68;4.55;;;12.10;99.90;;;;;;4987736;28;20499;-81
2022/10/31 09:17:47;;;;;;;11.63;7.55;;;12.20;99.90;;;;;;4979987;28;20032;-82
2022/10/31 09:20:37;;;;;;;6.50;5.28;;;12.30;99.90;;;;;;4988884;28;20058;-80
2022/10/31 09:23:05;;;;;;;6.53;5.13;;;12.30;99.90;;;;;;5012596;28;20055;-80
2022/10/31 09:25:34;;;;;;;5.47;4.90;;;12.40;99.90;;;;;;4994141;28;20026;-80
2022/10/31 09:28:24;;;;;;;10.43;6.32;;;12.50;99.90;;;;;;4972109;28;20042;-82
2022/10/31 09:30:52;;;;;;;6.90;5.95;;;12.60;99.90;;;;;;4973208;28;20029;-82
2022/10/31 09:33:38;;;;;;;9.23;5.07;;;12.70;99.90;;;;;;4980530;28;20038;-82
2022/10/31 09:36:23;;;;;;;15.70;6.95;;;12.80;99.90;;;;;;4998072;28;20045;-82
2022/10/31 09:38:51;;;;;;;13.07;6.88;;;13.00;99.90;;;;;;4939200;28;20039;-83
2022/10/31 09:41:42;;;;;;;7.95;5.47;;;13.20;99.90;;;;;;4987247;28;20089;-81
2022/10/31 09:44:43;;;;;;;8.27;6.03;;;13.40;99.90;;;;;;4982211;28;20038;-82
2022/10/31 09:47:38;;;;;;;13.15;5.95;;;13.60;99.90;;;;;;4982936;28;20030;-82
2022/10/31 09:50:48;;;;;;;11.02;6.20;;;13.80;99.90;;;;;;4964841;28;20034;-81
2022/10/31 09:53:57;;;;;;;10.23;5.95;;;14.10;99.90;;;;;;4954839;28;20118;-82
2022/10/31 09:56:26;;;;;;;8.95;5.40;;;14.20;99.90;;;;;;4977803;28;20031;-82
2022/10/31 09:59:00;;;;;;;10.63;5.75;;;14.40;99.90;;;;;;4952294;28;20027;-83
2022/10/31 10:01:38;;;;;;;11.02;5.07;;;14.50;99.90;;;;;;4979434;28;20034;-83
2022/10/31 10:04:42;;;;;;;11.13;5.53;;;14.60;99.90;;;;;;4986626;28;20088;-81
2022/10/31 10:07:32;;;;;;;8.50;4.90;;;14.80;99.90;;;;;;5005865;28;20030;-82
2022/10/31 10:10:41;;;;;;;9.20;4.85;;;15.00;99.90;;;;;;4989849;28;20030;-81
2022/10/31 10:13:44;;;;;;;11.85;5.40;;;15.10;99.90;;;;;;4988243;28;20042;-81
2022/10/31 10:16:44;;;;;;;10.60;5.97;;;15.20;99.90;;;;;;5014263;28;20123;-80
2022/10/31 10:19:45;;;;;;;12.02;5.53;;;15.30;99.90;;;;;;4976717;28;20332;-80
2022/10/31 10:22:31;;;;;;;8.93;5.10;;;15.40;99.90;;;;;;5003451;28;20034;-80
2022/10/31 10:25:10;;;;;;;13.02;5.88;;;15.40;99.90;;;;;;5022216;28;20042;-81
2022/10/31 10:28:04;;;;;;;11.65;5.43;;;15.40;99.90;;;;;;4987389;28;20043;-82
2022/10/31 10:30:44;;;;;;;12.68;6.05;;;15.50;99.90;;;;;;4987619;28;20168;-81
2022/10/31 10:33:19;;;;;;;13.07;6.53;;;15.50;99.90;;;;;;4986119;28;20026;-81
2022/10/31 10:36:03;;;;;;;12.73;5.82;;;15.60;99.90;;;;;;4987129;28;20023;-81
2022/10/31 10:38:49;;;;;;;12.07;5.45;;;15.70;99.90;;;;;;4966822;28;20055;-80
2022/10/31 10:41:21;;;;;;;15.43;6.70;;;15.80;99.90;;;;;;4984076;28;20053;-80
2022/10/31 10:43:50;;;;;;;9.70;5.15;;;15.90;99.90;;;;;;4986359;28;20511;-81
2022/10/31 10:49:14;;;;;;;13.52;5.10;;;16.00;99.90;;;;;;4981951;28;20034;-81
2022/10/31 10:51:56;;;;;;;8.50;4.97;;;16.20;99.90;;;;;;5007832;28;20085;-80
2022/10/31 10:54:37;;;;;;;8.68;4.93;;;16.20;99.90;;;;;;4982398;28;20105;-80
2022/10/31 10:57:23;;;;;;;9.95;4.95;;;16.10;99.90;;;;;;5002319;28;20581;-80
2022/10/31 10:59:51;;;;;;;15.25;6.03;;;16.20;99.90;;;;;;5002195;28;20036;-79
2022/10/31 11:02:26;;;;;;;11.60;5.50;;;16.20;99.90;;;;;;4980496;28;20579;-81
2022/10/31 11:04:58;;;;;;;13.40;5.53;;;16.20;99.90;;;;;;5006744;28;20042;-80
2022/10/31 11:07:24;;;;;;;9.40;4.88;;;16.30;99.90;;;;;;4994682;28;20030;-80
2022/10/31 11:09:50;;;;;;;10.35;4.93;;;16.30;99.90;;;;;;4955464;28;20035;-80
2022/10/31 11:12:33;;;;;;;11.98;5.50;;;16.40;99.90;;;;;;4995589;28;20543;-80
2022/10/31 11:15:07;;;;;;;10.75;4.68;;;16.40;99.90;;;;;;5005994;28;20066;-80
2022/10/31 11:17:37;;;;;;;9.52;4.38;;;16.40;99.90;;;;;;4994985;28;20198;-80
2022/10/31 11:20:28;;;;;;;9.65;4.57;;;16.50;99.90;;;;;;4995051;28;20083;-81
2022/10/31 11:23:02;;;;;;;9.60;5.00;;;16.50;99.90;;;;;;5004805;28;20034;-81
2022/10/31 11:25:28;;;;;;;8.30;5.33;;;16.70;99.90;;;;;;5003320;28;20039;-81
2022/10/31 11:28:05;;;;;;;8.27;5.90;;;16.90;99.90;;;;;;4997358;28;20276;-81
2022/10/31 11:30:43;;;;;;;8.20;4.40;;;17.00;99.90;;;;;;4977542;28;20116;-82
2022/10/31 11:33:22;;;;;;;7.75;4.57;;;17.00;99.90;;;;;;4988486;28;20038;-82
2022/10/31 11:35:49;;;;;;;12.15;6.07;;;17.00;99.90;;;;;;5006182;28;20066;-83
2022/10/31 11:38:21;;;;;;;10.63;4.65;;;17.00;99.90;;;;;;4989911;28;20054;-83
2022/10/31 11:41:04;;;;;;;8.90;4.43;;;17.00;99.90;;;;;;4995454;28;20490;-81
2022/10/31 11:43:30;;;;;;;9.73;4.60;;;17.10;99.90;;;;;;5007351;28;20054;-82
2022/10/31 11:45:56;;;;;;;9.07;4.40;;;17.20;99.90;;;;;;4995645;28;20560;-83
2022/10/31 11:48:25;;;;;;;8.18;4.57;;;17.30;99.90;;;;;;4978087;28;20183;-81
2022/10/31 11:50:55;;;;;;;6.53;3.88;;;17.30;99.90;;;;;;4972051;28;20427;-82
2022/10/31 11:53:33;;;;;;;5.70;4.43;;;17.40;99.90;;;;;;4988331;28;20022;-82
2022/10/31 11:56:13;;;;;;;12.68;4.15;;;17.40;99.90;;;;;;4969639;28;20034;-85
2022/10/31 11:58:39;;;;;;;7.45;4.60;;;17.30;99.90;;;;;;4985444;28;20694;-83
2022/10/31 12:01:10;;;;;;;7.63;3.83;;;17.30;99.90;;;;;;4985608;28;20034;-84
2022/10/31 12:04:02;;;;;;;8.85;3.85;;;17.30;99.90;;;;;;4979550;28;20038;-84
2022/10/31 12:06:42;;;;;;;7.63;4.05;;;17.30;99.90;;;;;;4961977;28;20026;-83
2022/10/31 12:09:25;;;;;;;7.25;4.18;;;17.30;99.90;;;;;;4979817;28;20022;-84
2022/10/31 12:12:18;;;;;;;5.20;3.70;;;17.40;99.90;;;;;;4998022;28;20671;-83
2022/10/31 12:14:58;;;;;;;10.15;4.55;;;17.40;99.90;;;;;;5003807;28;20436;-84
2022/10/31 12:17:36;;;;;;;7.82;3.65;;;17.40;99.90;;;;;;4998888;28;20092;-83
2022/10/31 12:20:24;;;;;;;11.70;3.75;;;17.40;99.90;;;;;;4983965;28;20042;-83
2022/10/31 12:23:05;;;;;;;9.27;3.78;;;17.40;99.90;;;;;;4991032;28;20530;-82
2022/10/31 12:25:37;;;;;;;6.30;3.17;;;17.40;99.90;;;;;;5004798;28;20598;-83
2022/10/31 12:28:14;;;;;;;5.63;3.08;;;17.50;99.90;;;;;;4968429;28;20550;-83
2022/10/31 12:31:01;;;;;;;4.22;3.50;;;17.50;99.90;;;;;;4986348;28;20030;-82
2022/10/31 12:33:49;;;;;;;6.03;3.80;;;17.50;99.90;;;;;;4999312;28;20030;-83
2022/10/31 12:36:41;;;;;;;5.65;3.65;;;17.60;99.90;;;;;;4986047;28;20125;-82
2022/10/31 12:39:15;;;;;;;7.65;3.50;;;17.70;99.90;;;;;;4964969;28;20117;-82
2022/10/31 12:41:50;;;;;;;6.43;3.63;;;17.70;99.90;;;;;;5001071;28;20076;-83
2022/10/31 12:44:50;;;;;;;7.90;4.30;;;17.80;99.90;;;;;;4973082;28;20112;-83
2022/10/31 12:47:45;;;;;;;6.28;3.15;;;17.80;99.90;;;;;;5006218;28;20418;-82
2022/10/31 12:50:22;;;;;;;7.05;3.72;;;17.90;99.90;;;;;;4986500;28;20030;-82
2022/10/31 12:53:00;;;;;;;8.38;3.38;;;18.00;99.90;;;;;;4995666;28;20113;-83
2022/10/31 12:55:37;;;;;;;5.90;3.42;;;18.00;99.90;;;;;;4985479;28;20042;-82
2022/10/31 12:58:11;;;;;;;5.65;3.55;;;18.10;99.90;;;;;;4990493;28;20026;-84
2022/10/31 13:00:44;;;;;;;6.18;3.40;;;18.10;99.90;;;;;;4992178;28;20026;-83
2022/10/31 13:03:33;;;;;;;9.00;3.88;;;18.20;99.90;;;;;;4988825;28;20038;-84
2022/10/31 13:06:05;;;;;;;6.65;3.15;;;18.20;99.90;;;;;;4989018;28;20033;-82
2022/10/31 13:08:42;;;;;;;8.63;3.78;;;18.20;99.90;;;;;;4981792;28;20138;-83
2022/10/31 13:11:14;;;;;;;5.57;3.25;;;18.20;99.90;;;;;;4992343;28;20038;-83
2022/10/31 13:13:56;;;;;;;4.60;3.30;;;18.20;99.90;;;;;;5000545;28;20038;-83
2022/10/31 13:16:26;;;;;;;5.32;3.50;;;18.20;99.90;;;;;;4986253;28;20046;-84
2022/10/31 13:18:57;;;;;;;8.27;4.15;;;18.30;99.90;;;;;;4987618;28;20034;-85
2022/10/31 13:21:33;;;;;;;5.82;3.10;;;18.30;99.90;;;;;;5005123;28;20253;-83
2022/10/31 13:24:02;;;;;;;7.30;3.00;;;18.20;99.90;;;;;;4988665;28;20088;-83
2022/10/31 13:26:38;;;;;;;6.95;3.13;;;18.20;99.90;;;;;;4982289;28;20132;-83
2022/10/31 13:29:09;;;;;;;9.77;3.47;;;18.20;99.90;;;;;;4962584;28;20595;-83
2022/10/31 13:31:39;;;;;;;4.38;2.83;;;18.20;99.90;;;;;;4982683;28;20030;-82